Terminal Aerodrome Forecast
Issued by NWS

Home | Current Version | Previous Version | Text Only | Print | Product List | Glossary On
Versions: 1 2 3 4 5 6 7 8 9 10 11 12 13 14 15 16 17 18 19 20 21 22
000
FTUS44 KCRP 220000 AAA
TAFLRD
TAF AMD
KLRD 220045Z 2201/2224 11010KT P6SM VCSH SCT040 BKN050
      TEMPO 2201/2203 6SM -SHRA BR BKN040
     FM220400 12007KT P6SM FEW015 BKN050
      TEMPO 2210/2212 BKN010
     FM221600 09011KT P6SM SCT050
     FM222300 11012G18KT P6SM SCT070=

USA.gov is the U.S. government's official web portal to all federal, state and local government web resources and services.